createdAt,value
2019-05-18T00:02:10.109Z,42.02
2019-05-18T00:04:39.373Z,42.05
2019-05-18T00:07:08.659Z,42.03
2019-05-18T00:09:37.912Z,42.02
2019-05-18T00:12:07.177Z,42.08
2019-05-18T00:14:36.455Z,42.02
2019-05-18T00:17:08.020Z,42.07
2019-05-18T00:19:36.704Z,42.03
2019-05-18T00:22:05.982Z,42.09
2019-05-18T00:24:35.251Z,42.12
2019-05-18T00:27:04.575Z,42.04
2019-05-18T00:29:35.458Z,42.12
2019-05-18T00:32:04.785Z,42.11
2019-05-18T00:34:34.095Z,42.13
2019-05-18T00:37:03.442Z,42.16
2019-05-18T00:39:32.730Z,42.11
2019-05-18T00:42:02.161Z,42.10
2019-05-18T00:44:31.438Z,42.20
2019-05-18T00:47:00.700Z,42.17
2019-05-18T00:49:29.973Z,42.17
2019-05-18T00:51:59.228Z,42.24
2019-05-18T00:54:28.495Z,42.15
2019-05-18T00:56:57.753Z,42.14
2019-05-18T00:59:27.025Z,42.23
2019-05-18T01:01:56.312Z,42.22
2019-05-18T01:04:25.594Z,42.30
2019-05-18T01:06:54.856Z,42.29
2019-05-18T01:09:24.148Z,42.22
2019-05-18T01:11:53.400Z,42.34
2019-05-18T01:14:22.661Z,42.28
2019-05-18T01:16:51.904Z,42.37
2019-05-18T01:19:21.170Z,42.28
2019-05-18T01:21:50.461Z,42.29
2019-05-18T01:24:19.897Z,42.38
2019-05-18T01:26:49.161Z,42.41
2019-05-18T01:29:18.422Z,42.42
2019-05-18T01:31:47.683Z,42.38
2019-05-18T01:34:16.954Z,42.31
2019-05-18T01:36:46.221Z,42.42
2019-05-18T01:39:15.471Z,42.42
2019-05-18T01:41:44.743Z,42.38
2019-05-18T01:44:14.002Z,42.50
2019-05-18T01:46:43.276Z,42.42
2019-05-18T01:49:12.513Z,42.44
2019-05-18T01:51:41.790Z,42.41
2019-05-18T01:54:11.058Z,42.43
2019-05-18T01:56:40.316Z,42.48
2019-05-18T01:59:09.584Z,42.50
2019-05-18T02:01:38.865Z,42.53
2019-05-18T02:04:08.120Z,42.52
2019-05-18T02:06:37.403Z,42.57
2019-05-18T02:09:08.373Z,42.57
2019-05-18T02:11:37.655Z,42.44
2019-05-18T02:14:06.908Z,42.57
2019-05-18T02:16:36.191Z,42.58
2019-05-18T02:19:05.446Z,42.62
2019-05-18T02:21:34.734Z,42.51
2019-05-18T02:24:05.082Z,42.69
2019-05-18T02:26:34.320Z,42.64
2019-05-18T02:29:03.591Z,42.71
2019-05-18T02:31:32.856Z,42.70
2019-05-18T02:34:02.147Z,42.83
2019-05-18T02:36:31.400Z,42.76
2019-05-18T02:39:00.657Z,42.82
2019-05-18T02:41:30.200Z,42.81
2019-05-18T02:43:59.478Z,42.87
2019-05-18T02:46:28.743Z,42.86
2019-05-18T02:48:58.030Z,42.91
2019-05-18T02:51:27.294Z,42.86
2019-05-18T02:53:56.646Z,42.81
2019-05-18T02:56:25.908Z,42.88
2019-05-18T02:58:55.185Z,42.95
2019-05-18T03:01:24.454Z,42.87
2019-05-18T03:03:53.727Z,42.91
2019-05-18T03:06:23.002Z,42.90
2019-05-18T03:08:52.267Z,42.96
2019-05-18T03:11:21.530Z,42.99
2019-05-18T03:13:50.805Z,42.95
2019-05-18T03:16:20.057Z,43.00
2019-05-18T03:19:06.695Z,43.04
2019-05-18T03:21:20.293Z,42.99
2019-05-18T03:23:49.560Z,43.02
2019-05-18T03:26:18.835Z,43.04
2019-05-18T03:28:48.094Z,43.07
2019-05-18T03:31:17.388Z,43.07
2019-05-18T03:33:46.615Z,43.10
2019-05-18T03:36:15.882Z,42.99
2019-05-18T03:38:45.158Z,42.99
2019-05-18T03:41:14.476Z,43.10
2019-05-18T03:43:43.748Z,43.07
2019-05-18T03:46:12.998Z,43.00
2019-05-18T03:48:42.275Z,43.07
2019-05-18T03:51:11.547Z,43.04
2019-05-18T03:53:40.845Z,42.97
2019-05-18T03:56:11.173Z,43.10
2019-05-18T03:58:40.441Z,43.10
2019-05-18T04:01:09.715Z,43.08
2019-05-18T04:03:39.152Z,43.13
2019-05-18T04:06:08.429Z,43.04
2019-05-18T04:08:37.691Z,43.07
2019-05-18T04:11:06.961Z,43.12
2019-05-18T04:13:36.213Z,43.05
2019-05-18T04:16:05.469Z,43.05
2019-05-18T04:18:34.755Z,43.04
2019-05-18T04:21:06.863Z,43.15
2019-05-18T04:23:37.287Z,43.13
2019-05-18T04:26:06.572Z,43.13
2019-05-18T04:28:35.837Z,43.13
2019-05-18T04:31:05.088Z,43.10
2019-05-18T04:33:34.357Z,43.13
2019-05-18T04:36:03.631Z,43.12
2019-05-18T04:38:32.888Z,43.09
2019-05-18T04:41:02.154Z,43.07
2019-05-18T04:43:31.434Z,42.98
2019-05-18T04:46:00.682Z,43.08
2019-05-18T04:48:29.978Z,43.09
2019-05-18T04:51:00.216Z,43.09
2019-05-18T04:53:29.480Z,43.13
2019-05-18T04:55:59.145Z,43.13
2019-05-18T04:58:28.411Z,43.02
2019-05-18T05:00:57.674Z,43.06
2019-05-18T05:03:26.965Z,43.08
2019-05-18T05:05:56.241Z,43.09
2019-05-18T05:08:25.497Z,43.10
2019-05-18T05:10:54.767Z,43.13
2019-05-18T05:13:25.651Z,43.04
2019-05-18T05:15:54.920Z,43.11
2019-05-18T05:18:24.181Z,43.06
2019-05-18T05:20:53.443Z,43.09
2019-05-18T05:23:22.704Z,42.99
2019-05-18T05:25:51.971Z,43.03
2019-05-18T05:28:21.274Z,43.03
2019-05-18T05:30:50.530Z,43.05
2019-05-18T05:33:19.802Z,43.12
2019-05-18T05:35:49.145Z,43.04
2019-05-18T05:38:18.404Z,42.95
2019-05-18T05:40:47.675Z,42.85
2019-05-18T05:43:16.956Z,42.79
2019-05-18T05:45:46.212Z,42.72
2019-05-18T05:48:15.489Z,42.65
2019-05-18T05:50:44.807Z,42.58
2019-05-18T05:53:14.071Z,42.55
2019-05-18T05:55:43.330Z,42.61
2019-05-18T05:58:12.602Z,42.59
2019-05-18T06:00:41.867Z,42.57
2019-05-18T06:03:11.131Z,42.57
2019-05-18T06:05:40.403Z,42.59
2019-05-18T06:08:09.750Z,42.54
2019-05-18T06:10:39.004Z,42.50
2019-05-18T06:13:08.300Z,42.53
2019-05-18T06:15:37.573Z,42.46
2019-05-18T06:18:06.838Z,42.45
2019-05-18T06:20:50.329Z,42.51
2019-05-18T06:23:07.094Z,42.54
2019-05-18T06:25:37.418Z,42.50
2019-05-18T06:28:06.683Z,42.52
2019-05-18T06:30:35.968Z,42.49
2019-05-18T06:33:06.322Z,42.42
2019-05-18T06:35:35.591Z,42.42
2019-05-18T06:38:05.134Z,42.35
2019-05-18T06:40:34.472Z,42.41
2019-05-18T06:43:03.736Z,42.37
2019-05-18T06:45:32.996Z,42.35
2019-05-18T06:48:02.300Z,42.35
2019-05-18T06:50:32.217Z,42.33
2019-05-18T06:53:01.613Z,42.05
2019-05-18T06:55:30.859Z,41.94
2019-05-18T06:58:00.119Z,41.88
2019-05-18T07:00:29.382Z,41.71
2019-05-18T07:02:58.641Z,41.73
2019-05-18T07:05:27.915Z,41.66
2019-05-18T07:07:57.219Z,41.58
2019-05-18T07:10:26.500Z,41.47
2019-05-18T07:12:55.768Z,41.27
2019-05-18T07:15:25.033Z,41.38
2019-05-18T07:17:54.382Z,41.32
2019-05-18T07:20:23.642Z,41.31
2019-05-18T07:22:52.964Z,41.33
2019-05-18T07:25:22.184Z,41.14
2019-05-18T07:27:51.802Z,41.14
2019-05-18T07:30:21.088Z,41.25
2019-05-18T07:32:50.348Z,41.18
2019-05-18T07:35:19.623Z,41.09
2019-05-18T07:37:48.880Z,41.14
2019-05-18T07:40:19.326Z,40.91
2019-05-18T07:42:48.577Z,40.93
2019-05-18T07:45:17.833Z,40.88
2019-05-18T07:47:47.109Z,40.79
2019-05-18T07:50:16.379Z,40.84
2019-05-18T07:52:45.655Z,40.83
2019-05-18T07:55:14.921Z,40.92
2019-05-18T07:57:44.184Z,40.84
2019-05-18T08:00:13.449Z,40.82
2019-05-18T08:02:42.779Z,40.71
2019-05-18T08:05:12.089Z,40.68
2019-05-18T08:07:41.368Z,40.68
2019-05-18T08:10:10.693Z,40.59
2019-05-18T08:12:39.984Z,40.65
2019-05-18T08:15:09.589Z,40.60
2019-05-18T08:17:38.836Z,40.59
2019-05-18T08:20:08.102Z,40.49
2019-05-18T08:22:37.373Z,40.49
2019-05-18T08:25:07.312Z,40.42
2019-05-18T08:27:36.588Z,40.38
2019-05-18T08:30:06.491Z,40.35
2019-05-18T08:32:35.694Z,40.36
2019-05-18T08:35:06.335Z,40.31
2019-05-18T08:37:35.681Z,41.19
2019-05-18T08:40:08.241Z,48.47
2019-05-18T08:42:38.157Z,50.30
2019-05-18T08:45:08.787Z,50.33
2019-05-18T08:47:38.087Z,51.89
2019-05-18T08:50:07.870Z,50.82
2019-05-18T08:52:37.159Z,51.99
2019-05-18T08:55:06.510Z,54.52
2019-05-18T08:57:35.782Z,53.22
2019-05-18T09:00:05.789Z,52.26
2019-05-18T09:02:35.085Z,52.96
2019-05-18T09:05:05.360Z,52.57
2019-05-18T09:07:34.569Z,51.32
2019-05-18T09:10:05.790Z,53.32
2019-05-18T09:12:35.059Z,54.25
2019-05-18T09:15:07.041Z,54.12
2019-05-18T09:17:36.319Z,54.82
2019-05-18T12:28:53.575Z,36.46
2019-05-18T12:33:07.214Z,37.55
2019-05-18T12:35:36.485Z,36.51
2019-05-18T12:38:05.747Z,36.13
2019-05-18T12:40:35.038Z,36.22
2019-05-18T12:43:04.306Z,36.08
2019-05-18T12:45:33.585Z,36.08
2019-05-18T12:48:02.847Z,35.97
2019-05-18T12:50:32.104Z,35.79
2019-05-18T12:53:01.386Z,35.79
2019-05-18T12:55:30.634Z,35.83
2019-05-18T12:57:59.905Z,35.77
2019-05-18T13:02:03.036Z,35.92
2019-05-18T13:04:57.220Z,35.45
2019-05-18T13:07:26.382Z,35.25
2019-05-18T13:09:55.551Z,35.01
2019-05-18T13:12:24.706Z,34.99
2019-05-18T13:14:53.874Z,34.88
2019-05-18T13:17:23.017Z,34.82
2019-05-18T13:19:52.170Z,34.85
2019-05-18T13:22:21.314Z,34.70
2019-05-18T13:24:52.227Z,34.76
2019-05-18T13:27:21.726Z,34.65
2019-05-18T13:29:51.956Z,34.56
2019-05-18T13:32:22.198Z,34.55
2019-05-18T13:34:51.362Z,34.47
2019-05-18T13:37:20.535Z,34.38
2019-05-18T13:39:49.689Z,34.40
2019-05-18T13:42:18.842Z,34.23
2019-05-18T13:44:47.998Z,34.14
2019-05-18T13:47:17.143Z,33.99
2019-05-18T13:49:46.311Z,33.96
2019-05-18T13:52:15.480Z,33.89
2019-05-18T13:55:01.181Z,33.84
2019-05-18T13:57:15.491Z,33.93
2019-05-18T13:59:44.651Z,34.02
2019-05-18T14:02:13.791Z,34.00
2019-05-18T14:04:42.971Z,33.89
2019-05-18T14:07:12.119Z,33.77
2019-05-18T14:09:41.274Z,33.54
2019-05-18T14:12:10.497Z,33.61
2019-05-18T14:14:39.682Z,33.73
2019-05-18T14:17:08.816Z,33.75
2019-05-18T14:19:38.003Z,33.71
2019-05-18T14:22:07.135Z,33.87
2019-05-18T14:24:36.313Z,33.81
2019-05-18T14:27:05.479Z,33.75
2019-05-18T14:29:34.642Z,33.77
2019-05-18T14:32:03.814Z,33.84
2019-05-18T14:34:32.977Z,33.79
2019-05-18T14:37:03.114Z,33.68
2019-05-18T14:39:32.277Z,33.64
2019-05-18T14:42:01.534Z,33.80
2019-05-18T14:44:30.761Z,33.92
2019-05-18T14:47:00.046Z,33.85
2019-05-18T14:49:29.199Z,33.87
2019-05-18T14:51:58.375Z,33.95
2019-05-18T14:54:27.503Z,34.03
2019-05-18T14:56:56.654Z,34.04
2019-05-18T14:59:25.812Z,34.14
2019-05-18T15:04:04.374Z,34.17
2019-05-18T15:08:43.523Z,32.69
2019-05-18T15:11:12.704Z,32.69
2019-05-18T15:13:41.867Z,34.50
2019-05-18T15:16:11.038Z,34.19
2019-05-18T15:18:40.458Z,34.22
2019-05-18T15:21:09.710Z,32.79
2019-05-18T15:23:38.877Z,32.95
2019-05-18T15:26:08.049Z,31.73
2019-05-18T15:28:37.230Z,32.37
2019-05-18T15:31:06.393Z,31.96
2019-05-18T15:33:35.585Z,31.76
2019-05-18T15:36:04.775Z,32.15
2019-05-18T15:38:33.947Z,31.65
2019-05-18T15:41:03.101Z,31.64
2019-05-18T15:43:32.271Z,33.21
2019-05-18T15:46:01.442Z,31.26
2019-05-18T15:48:30.696Z,31.31
2019-05-18T15:50:59.880Z,31.07
2019-05-18T15:53:29.023Z,31.23
2019-05-18T15:56:05.851Z,31.47
2019-05-18T15:58:29.072Z,31.32
2019-05-18T16:00:58.310Z,31.00
2019-05-18T16:03:28.873Z,30.94
2019-05-18T16:05:58.975Z,30.72
2019-05-18T16:08:30.040Z,30.46
2019-05-18T16:10:59.196Z,30.52
2019-05-18T16:13:28.357Z,30.67
2019-05-18T16:16:00.606Z,30.53
2019-05-18T16:18:29.764Z,30.35
2019-05-18T16:21:00.621Z,29.86
2019-05-18T16:23:29.782Z,30.09
2019-05-18T16:25:58.956Z,33.20
2019-05-18T16:28:28.110Z,32.79
2019-05-18T16:30:57.375Z,31.50
2019-05-18T16:33:26.555Z,32.15
2019-05-18T16:35:55.717Z,32.36
2019-05-18T18:54:19.641Z,38.73
2019-05-18T18:56:48.794Z,37.73
2019-05-18T18:59:17.956Z,37.19
2019-05-18T19:01:48.079Z,36.98
2019-05-18T19:04:17.253Z,36.79
2019-05-18T19:06:46.419Z,36.61
2019-05-18T19:09:15.601Z,36.02
2019-05-18T19:11:44.756Z,35.84
2019-05-18T19:14:13.920Z,35.69
2019-05-18T19:16:43.085Z,35.87
2019-05-18T19:19:12.266Z,35.60
2019-05-18T19:21:41.414Z,35.35
2019-05-18T19:24:10.569Z,35.25
2019-05-18T19:26:39.737Z,35.18
2019-05-18T19:29:09.027Z,35.17
2019-05-18T19:31:38.179Z,35.37
2019-05-18T19:34:06.700Z,35.22
2019-05-18T19:36:35.723Z,35.89
2019-05-18T19:39:06.164Z,36.25
2019-05-18T19:41:35.419Z,36.86
2019-05-18T19:44:04.573Z,36.12
2019-05-18T19:46:34.375Z,36.25
2019-05-18T19:49:03.536Z,36.95
2019-05-18T19:51:32.723Z,37.02
2019-05-18T19:54:01.862Z,36.80
2019-05-18T19:56:38.216Z,36.36
2019-05-18T19:59:01.879Z,36.99
2019-05-18T20:01:31.105Z,36.78
2019-05-18T20:04:00.258Z,36.94
2019-05-18T20:06:29.425Z,37.07
2019-05-18T20:08:58.587Z,37.12
2019-05-18T20:11:27.732Z,37.28
2019-05-18T20:13:56.892Z,37.08
2019-05-18T20:16:26.054Z,36.91
2019-05-18T20:18:55.209Z,36.87
2019-05-18T20:21:24.381Z,37.33
2019-05-18T20:23:53.538Z,36.46
2019-05-18T20:26:22.703Z,36.93
2019-05-18T20:28:51.849Z,36.42
2019-05-18T20:31:21.137Z,36.44
2019-05-18T20:33:50.262Z,36.70
2019-05-18T20:36:19.410Z,36.38
2019-05-18T20:38:48.571Z,36.38
2019-05-18T20:41:17.718Z,36.38
2019-05-18T20:43:46.885Z,36.39
2019-05-18T20:46:16.047Z,36.37
2019-05-18T20:48:45.207Z,36.52
2019-05-18T20:51:14.364Z,37.41
2019-05-18T20:53:44.590Z,36.53
2019-05-18T20:56:13.736Z,37.21
2019-05-18T20:58:42.912Z,36.33
2019-05-18T21:01:12.067Z,36.36
2019-05-18T21:03:42.302Z,36.29
2019-05-18T21:06:11.469Z,36.30
2019-05-18T21:08:40.624Z,36.31
2019-05-18T21:11:09.775Z,36.96
2019-05-18T21:13:38.985Z,36.45
2019-05-18T21:16:08.128Z,36.55
2019-05-18T21:18:37.295Z,37.00
2019-05-18T21:21:06.466Z,37.29
2019-05-18T21:23:35.622Z,37.80
2019-05-18T21:26:04.781Z,36.87
2019-05-18T21:28:33.928Z,36.67
2019-05-18T21:31:03.081Z,36.44
2019-05-18T21:33:32.238Z,36.55
2019-05-18T21:36:01.399Z,36.26
2019-05-18T21:38:31.731Z,36.48
2019-05-18T21:41:00.891Z,36.61
2019-05-18T21:43:30.049Z,36.19
2019-05-18T21:45:59.213Z,36.10
2019-05-18T21:48:28.358Z,37.05
2019-05-18T21:50:57.529Z,36.40
2019-05-18T21:53:26.684Z,36.69
2019-05-18T21:55:55.844Z,36.61
2019-05-18T21:58:25.016Z,36.45
2019-05-18T22:00:54.242Z,36.60
2019-05-18T22:03:23.442Z,36.59
2019-05-18T22:05:52.591Z,36.60
2019-05-18T22:08:21.768Z,36.82
2019-05-18T22:10:51.034Z,37.13
2019-05-18T22:13:20.194Z,36.72
2019-05-18T22:15:49.357Z,36.61
2019-05-18T22:18:24.463Z,36.91
2019-05-18T22:20:49.392Z,36.49
2019-05-18T22:23:18.535Z,37.11
2019-05-18T22:25:47.720Z,36.77
2019-05-18T22:28:16.864Z,36.91
2019-05-18T22:30:46.023Z,36.86
2019-05-18T22:33:15.183Z,36.68
2019-05-18T22:35:44.339Z,35.75
2019-05-18T22:38:13.504Z,36.85
2019-05-18T22:40:42.648Z,35.61
2019-05-18T22:43:11.806Z,35.58
2019-05-18T22:45:40.971Z,36.35
2019-05-18T22:48:10.185Z,36.29
2019-05-18T22:50:39.357Z,36.64
2019-05-18T22:53:08.520Z,36.83
2019-05-18T22:55:37.690Z,37.08
2019-05-18T22:58:06.852Z,37.08
2019-05-18T23:00:36.369Z,37.05
2019-05-18T23:03:05.598Z,36.78
2019-05-18T23:05:34.812Z,37.08
2019-05-18T23:08:04.000Z,37.13
2019-05-18T23:10:33.159Z,36.86
2019-05-18T23:13:02.316Z,36.87
2019-05-18T23:15:31.479Z,36.60
2019-05-18T23:18:00.631Z,37.00
2019-05-18T23:20:30.875Z,36.91
2019-05-18T23:23:00.052Z,37.18
2019-05-18T23:25:29.191Z,36.68
2019-05-18T23:27:58.349Z,36.54
2019-05-18T23:30:27.492Z,37.36
2019-05-18T23:32:56.650Z,35.94
2019-05-18T23:35:25.811Z,36.98
2019-05-18T23:37:54.988Z,36.84
2019-05-18T23:40:24.137Z,36.43
2019-05-18T23:42:53.298Z,36.87
2019-05-18T23:45:22.451Z,37.05
2019-05-18T23:47:51.793Z,36.98
2019-05-18T23:50:20.955Z,36.81
2019-05-18T23:52:50.105Z,36.61
2019-05-18T23:55:19.252Z,37.05
2019-05-18T23:57:48.421Z,36.90
